Time;durP1;ratioP1;P1;durP2;ratioP2;P2;SDS_P1;SDS_P2;PMS_P1;PMS_P2;Temp;Humidity;BMP_temperature;BMP_pressure;BME280_temperature;BME280_humidity;BME280_pressure;Samples;Min_cycle;Max_cycle;Signal;HPM_P1;HPM_P2
2022/07/17 00:00:42;;;;;;;2.35;2.00;;;;;;;22.72;70.96;94831.47;5051040;28;20209;-62
2022/07/17 00:03:12;;;;;;;3.03;2.28;;;;;;;22.70;71.37;94836.06;5051222;28;20181;-62
2022/07/17 00:05:38;;;;;;;3.25;2.03;;;;;;;22.65;71.63;94832.47;5033541;28;20224;-61
2022/07/17 00:08:08;;;;;;;4.60;2.50;;;;;;;22.64;72.00;94830.88;5033040;28;20700;-62
2022/07/17 00:10:39;;;;;;;3.15;2.03;;;;;;;22.62;71.93;94836.28;5051115;28;20263;-61
2022/07/17 00:13:05;;;;;;;3.63;2.65;;;;;;;22.63;71.78;94840.44;5051123;28;20240;-63
2022/07/17 00:15:31;;;;;;;2.47;2.28;;;;;;;22.58;72.25;94835.06;5050863;28;20202;-63
2022/07/17 00:17:56;;;;;;;4.60;2.70;;;;;;;22.56;72.19;94842.22;5050809;28;20270;-62
2022/07/17 00:20:24;;;;;;;3.80;2.25;;;;;;;22.46;72.71;94834.03;5050829;28;20680;-62
2022/07/17 00:22:51;;;;;;;4.50;2.08;;;;;;;22.50;72.43;94853.38;5050836;28;20193;-62
2022/07/17 00:25:17;;;;;;;5.32;2.17;;;;;;;22.43;72.54;94853.34;5050930;28;20254;-62
2022/07/17 00:27:42;;;;;;;5.00;2.13;;;;;;;22.36;72.75;94855.13;5051006;28;20221;-63
2022/07/17 00:30:08;;;;;;;3.83;2.30;;;;;;;22.47;73.25;94851.97;5050605;28;20200;-63
2022/07/17 00:32:34;;;;;;;3.25;2.33;;;;;;;22.40;73.09;94855.56;5050601;28;20272;-62
2022/07/17 00:35:00;;;;;;;2.30;2.10;;;;;;;22.45;73.09;94856.53;5050701;28;20190;-62
2022/07/17 00:37:25;;;;;;;3.95;2.38;;;;;;;22.46;73.87;94847.00;5049217;28;20193;-62
2022/07/17 00:39:51;;;;;;;4.65;2.40;;;;;;;22.37;73.51;94850.75;5049764;28;20586;-62
2022/07/17 00:42:17;;;;;;;2.70;2.30;;;;;;;22.42;72.92;94858.75;5049049;28;20306;-62
2022/07/17 00:44:44;;;;;;;3.00;2.50;;;;;;;22.36;72.93;94862.91;5032552;28;20196;-62
2022/07/17 00:47:18;;;;;;;2.45;1.92;;;;;;;22.25;73.53;94854.91;5050264;28;20295;-61
2022/07/17 00:49:44;;;;;;;8.63;2.28;;;;;;;22.24;73.37;94867.06;5050408;28;20185;-63
2022/07/17 00:52:12;;;;;;;3.42;2.40;;;;;;;22.27;73.40;94868.47;5032372;28;20221;-61
2022/07/17 00:54:39;;;;;;;3.50;2.30;;;;;;;22.22;73.31;94855.31;5050359;28;20660;-62
2022/07/17 00:57:14;;;;;;;8.65;2.58;;;;;;;22.13;73.15;94852.09;5050560;28;20207;-62
2022/07/17 00:59:40;;;;;;;2.47;2.28;;;;;;;22.20;72.97;94860.66;5050395;28;20188;-61
2022/07/17 01:02:11;;;;;;;2.40;2.20;;;;;;;22.17;73.32;94866.25;5050350;28;20236;-62
2022/07/17 01:04:38;;;;;;;2.58;1.73;;;;;;;22.05;73.84;94867.81;5050243;28;20728;-61
2022/07/17 01:07:05;;;;;;;2.38;2.13;;;;;;;22.02;73.45;94870.78;5050122;28;20288;-61
2022/07/17 01:09:32;;;;;;;4.22;2.47;;;;;;;22.01;73.69;94873.56;5050324;28;20259;-61
2022/07/17 01:11:58;;;;;;;5.80;2.30;;;;;;;22.05;73.32;94880.75;5049953;28;20288;-61
2022/07/17 01:14:25;;;;;;;4.78;2.10;;;;;;;22.03;73.46;94884.53;5050130;28;20197;-61
2022/07/17 01:16:52;;;;;;;3.25;2.38;;;;;;;22.06;73.23;94873.81;5050185;28;20217;-62
2022/07/17 01:19:19;;;;;;;2.40;2.20;;;;;;;22.05;73.26;94888.53;5050435;28;20722;-62
2022/07/17 01:21:46;;;;;;;3.03;2.10;;;;;;;22.04;73.23;94880.97;5032106;28;20209;-62
2022/07/17 01:24:13;;;;;;;4.53;2.10;;;;;;;22.07;73.01;94885.75;5032172;28;20186;-62
2022/07/17 01:26:47;;;;;;;3.00;2.58;;;;;;;22.04;73.38;94883.56;5032145;28;20836;-61
2022/07/17 01:29:16;;;;;;;4.95;1.92;;;;;;;22.02;72.64;94888.91;5049754;28;20212;-62
2022/07/17 01:31:42;;;;;;;2.10;1.98;;;;;;;21.93;72.94;94884.09;5049766;28;20688;-62
2022/07/17 01:34:15;;;;;;;4.90;2.67;;;;;;;21.95;72.86;94888.09;5049857;28;20186;-63
2022/07/17 01:36:42;;;;;;;3.67;2.03;;;;;;;22.03;73.25;94874.19;5031893;28;20256;-62
2022/07/17 01:39:08;;;;;;;2.45;2.25;;;;;;;22.05;72.87;94883.34;5049770;28;20217;-63
2022/07/17 01:41:33;;;;;;;2.53;2.33;;;;;;;22.03;72.33;94881.94;5032091;28;20217;-62
2022/07/17 01:43:59;;;;;;;3.85;2.20;;;;;;;21.95;73.42;94869.97;5049745;28;20189;-62
2022/07/17 01:46:25;;;;;;;5.72;2.58;;;;;;;21.95;72.00;94895.88;5049920;28;20697;-62
2022/07/17 01:48:51;;;;;;;2.72;1.90;;;;;;;21.97;72.44;94886.13;5049633;28;20681;-63
2022/07/17 01:51:16;;;;;;;3.90;2.10;;;;;;;21.96;71.56;94904.44;5052035;28;20220;-62
2022/07/17 01:53:42;;;;;;;4.15;2.22;;;;;;;21.95;71.19;94898.44;5053329;28;20649;-62
2022/07/17 01:56:07;;;;;;;2.70;2.00;;;;;;;21.97;71.34;94900.84;5053347;28;20373;-62
2022/07/17 01:58:34;;;;;;;3.47;2.30;;;;;;;22.07;71.45;94896.09;5051729;28;20216;-61
2022/07/17 02:00:59;;;;;;;5.20;2.17;;;;;;;22.09;71.60;94894.91;5052745;28;20243;-63
2022/07/17 02:03:25;;;;;;;2.70;2.05;;;;;;;22.16;72.21;94895.72;5052805;28;20331;-62
2022/07/17 02:05:51;;;;;;;3.78;2.00;;;;;;;22.27;72.43;94886.59;5052766;28;20201;-62
2022/07/17 02:08:17;;;;;;;2.03;1.92;;;;;;;22.41;71.78;94906.38;5052630;28;20213;-62
2022/07/17 02:10:42;;;;;;;5.68;2.38;;;;;;;22.34;70.36;94923.69;5051870;28;20282;-62
2022/07/17 02:13:08;;;;;;;6.30;2.70;;;;;;;22.37;70.88;94920.69;5052469;28;20189;-62
2022/07/17 02:15:33;;;;;;;2.97;1.85;;;;;;;22.42;70.60;94920.94;5052859;28;20220;-62
2022/07/17 02:17:59;;;;;;;3.75;2.28;;;;;;;22.44;70.43;94919.72;5052611;28;20280;-62
2022/07/17 02:20:25;;;;;;;3.38;2.13;;;;;;;22.24;70.52;94912.91;5052518;28;20198;-61
2022/07/17 02:22:51;;;;;;;3.58;2.00;;;;;;;22.27;71.45;94907.31;5052977;28;20190;-61
2022/07/17 02:25:16;;;;;;;5.90;2.67;;;;;;;22.32;70.51;94915.31;5052562;28;20240;-61
2022/07/17 02:27:43;;;;;;;4.00;2.17;;;;;;;22.40;70.43;94912.56;5052901;28;20213;-62
2022/07/17 02:30:12;;;;;;;2.40;2.20;;;;;;;22.40;70.89;94912.56;5052455;28;20194;-62
2022/07/17 02:32:44;;;;;;;3.50;2.13;;;;;;;22.21;70.38;94914.09;5052601;28;20205;-61
2022/07/17 02:35:10;;;;;;;4.70;2.20;;;;;;;22.29;71.04;94903.56;5052385;28;20270;-61
2022/07/17 02:37:37;;;;;;;6.72;2.40;;;;;;;22.22;71.22;94900.13;5050939;28;20272;-61
2022/07/17 02:40:04;;;;;;;5.43;2.40;;;;;;;22.11;70.06;94920.63;5052257;28;20236;-62
2022/07/17 02:42:30;;;;;;;9.40;2.67;;;;;;;22.07;71.33;94903.88;5052139;28;20193;-61
2022/07/17 02:44:57;;;;;;;5.30;2.45;;;;;;;21.94;71.41;94902.03;5052240;28;20793;-62
2022/07/17 02:47:28;;;;;;;3.33;3.03;;;;;;;22.01;72.06;94891.69;5052406;28;20189;-62
2022/07/17 02:49:54;;;;;;;2.72;2.38;;;;;;;21.82;71.19;94908.75;5034189;28;20186;-64
2022/07/17 02:52:20;;;;;;;3.55;2.83;;;;;;;21.80;71.42;94900.34;5052011;28;20228;-62
2022/07/17 02:54:46;;;;;;;2.88;2.45;;;;;;;21.95;71.81;94908.81;5052076;28;20177;-61
2022/07/17 02:57:12;;;;;;;4.78;2.60;;;;;;;21.86;71.47;94909.16;5052182;28;20240;-62
2022/07/17 02:59:38;;;;;;;7.95;2.30;;;;;;;21.81;71.16;94925.28;5051973;28;20512;-62
2022/07/17 03:02:04;;;;;;;3.03;2.55;;;;;;;21.55;71.78;94905.19;5051126;28;20220;-62
2022/07/17 03:04:30;;;;;;;3.97;2.22;;;;;;;21.43;72.74;94904.09;5051943;28;20725;-62
2022/07/17 03:06:55;;;;;;;6.18;4.07;;;;;;;21.38;73.36;94890.97;5033854;28;20288;-64
2022/07/17 03:09:20;;;;;;;5.28;4.35;;;;;;;21.38;73.50;94900.50;5052299;28;20209;-62
2022/07/17 03:11:46;;;;;;;7.40;3.10;;;;;;;21.39;73.62;94905.47;5052018;28;20210;-62
2022/07/17 03:14:12;;;;;;;7.47;4.50;;;;;;;21.49;73.71;94905.94;5051737;28;20335;-62
2022/07/17 03:16:37;;;;;;;3.83;2.80;;;;;;;21.62;73.40;94911.19;5051747;28;20613;-61
2022/07/17 03:19:03;;;;;;;5.57;3.25;;;;;;;21.71;73.83;94910.03;5051802;28;20690;-61
2022/07/17 03:21:28;;;;;;;7.88;3.30;;;;;;;21.52;73.71;94915.13;5051447;28;20205;-61
2022/07/17 03:23:54;;;;;;;3.95;2.58;;;;;;;21.58;73.79;94919.53;5033643;28;20298;-62
2022/07/17 03:26:19;;;;;;;3.30;2.45;;;;;;;21.63;73.51;94920.53;5051308;28;20606;-62
2022/07/17 03:28:45;;;;;;;3.50;2.70;;;;;;;21.46;72.73;94944.34;5033473;28;20296;-62
2022/07/17 03:31:10;;;;;;;3.70;2.58;;;;;;;21.43;72.78;94935.16;5033430;28;20718;-62
2022/07/17 03:33:36;;;;;;;3.40;3.10;;;;;;;21.64;72.98;94934.28;5051395;28;20683;-62
2022/07/17 03:36:02;;;;;;;11.57;3.38;;;;;;;21.58;73.23;94935.06;5051454;28;20209;-62
2022/07/17 03:38:27;;;;;;;3.38;2.72;;;;;;;21.77;72.77;94941.34;5051367;28;20288;-61
2022/07/17 03:40:52;;;;;;;4.25;2.45;;;;;;;21.77;71.73;94956.88;5051287;28;20759;-62
2022/07/17 03:43:18;;;;;;;6.30;3.67;;;;;;;21.73;71.82;94961.63;5051639;28;20200;-62
2022/07/17 03:45:44;;;;;;;4.70;4.30;;;;;;;21.62;72.37;94952.59;5051091;28;20565;-62
2022/07/17 03:48:09;;;;;;;6.72;5.95;;;;;;;21.59;72.59;94947.78;5051106;28;20643;-62
2022/07/17 03:50:35;;;;;;;6.53;4.13;;;;;;;21.51;72.24;94966.06;5051319;28;20617;-61
2022/07/17 03:53:00;;;;;;;8.10;4.75;;;;;;;21.66;73.22;94948.66;5051562;28;20182;-61
2022/07/17 03:55:26;;;;;;;6.43;3.28;;;;;;;21.61;70.71;94986.44;5051115;28;20272;-60
2022/07/17 03:57:52;;;;;;;8.15;2.65;;;;;;;21.57;70.43;94998.94;5051342;28;20185;-61
2022/07/17 04:00:18;;;;;;;5.03;2.78;;;;;;;21.47;71.43;94989.94;5051074;28;20235;-63
2022/07/17 04:02:43;;;;;;;5.35;3.08;;;;;;;21.51;71.63;94989.34;5050865;28;20513;-65
2022/07/17 04:05:10;;;;;;;8.15;3.40;;;;;;;21.54;71.54;94988.19;5050938;28;20271;-62
2022/07/17 04:07:37;;;;;;;3.85;2.88;;;;;;;21.37;70.65;95003.16;5051036;28;20189;-61
2022/07/17 04:10:03;;;;;;;7.72;2.75;;;;;;;21.38;71.11;94994.44;5050889;28;20254;-62
2022/07/17 04:12:29;;;;;;;4.45;3.13;;;;;;;21.29;69.62;95020.63;5049705;28;20213;-61
2022/07/17 04:14:55;;;;;;;4.03;2.83;;;;;;;21.24;69.11;95021.19;5050840;28;20220;-62
2022/07/17 04:17:21;;;;;;;4.93;3.25;;;;;;;21.26;69.27;95016.63;5051020;28;20213;-61
2022/07/17 04:19:47;;;;;;;3.90;2.78;;;;;;;21.28;69.10;95027.59;5050787;28;20182;-61
2022/07/17 04:22:13;;;;;;;3.65;2.30;;;;;;;21.30;67.72;95055.84;5050726;28;20557;-61
2022/07/17 04:24:38;;;;;;;5.47;2.60;;;;;;;21.41;68.18;95050.97;5032812;28;20177;-63
2022/07/17 04:27:04;;;;;;;2.50;2.17;;;;;;;21.34;66.79;95076.00;5050743;28;20197;-61
2022/07/17 04:29:30;;;;;;;5.57;2.80;;;;;;;21.49;67.07;95074.13;5050652;28;20209;-61
2022/07/17 04:31:55;;;;;;;6.75;4.15;;;;;;;21.53;66.76;95070.16;5050367;28;20592;-60
2022/07/17 04:34:21;;;;;;;6.55;3.28;;;;;;;21.75;67.44;95050.25;5050488;28;20260;-62
2022/07/17 04:36:47;;;;;;;4.85;3.25;;;;;;;21.76;64.98;95103.63;5032537;28;20217;-63
2022/07/17 04:39:12;;;;;;;5.43;3.65;;;;;;;21.80;65.10;95096.25;5049239;28;20189;-63
2022/07/17 04:41:38;;;;;;;4.78;3.10;;;;;;;21.82;63.64;95115.03;5050893;28;20700;-63
2022/07/17 04:44:04;;;;;;;3.28;2.38;;;;;;;21.77;61.40;95149.25;5050656;28;20566;-62
2022/07/17 04:46:29;;;;;;;4.25;3.40;;;;;;;21.92;63.01;95124.09;5050598;28;20315;-62
2022/07/17 04:48:54;;;;;;;4.88;3.75;;;;;;;21.88;61.78;95145.34;5050720;28;20217;-62
2022/07/17 04:51:20;;;;;;;6.35;3.10;;;;;;;21.84;61.13;95155.28;5050498;28;20593;-63
2022/07/17 04:53:45;;;;;;;2.85;2.40;;;;;;;21.88;59.99;95166.06;5050502;28;20571;-63
2022/07/17 04:56:11;;;;;;;3.28;2.70;;;;;;;21.93;61.32;95137.84;5050539;28;20216;-61
2022/07/17 04:58:37;;;;;;;5.03;2.90;;;;;;;21.96;61.71;95135.66;5050711;28;20186;-62
2022/07/17 05:01:02;;;;;;;3.80;2.95;;;;;;;21.98;61.08;95153.63;5032598;28;20304;-62
2022/07/17 05:03:28;;;;;;;7.22;2.75;;;;;;;21.94;62.69;95129.09;5050595;28;20212;-64
2022/07/17 05:05:54;;;;;;;3.03;2.70;;;;;;;22.02;62.90;95126.38;5050493;28;20288;-62
2022/07/17 05:08:19;;;;;;;4.25;2.63;;;;;;;22.09;63.57;95127.22;5050266;28;20252;-63
2022/07/17 05:10:45;;;;;;;3.17;2.40;;;;;;;22.11;60.34;95185.59;5050434;28;20212;-62
2022/07/17 05:13:12;;;;;;;2.55;2.30;;;;;;;22.18;61.67;95160.53;5050564;28;20188;-63
2022/07/17 05:15:38;;;;;;;3.58;2.55;;;;;;;22.22;60.26;95184.31;5050338;28;20714;-61
2022/07/17 05:18:03;;;;;;;4.35;2.58;;;;;;;22.18;59.89;95188.25;5050126;28;20198;-63
2022/07/17 05:20:29;;;;;;;4.18;2.38;;;;;;;22.21;58.50;95203.41;5050154;28;20212;-62
2022/07/17 05:22:55;;;;;;;4.70;2.70;;;;;;;22.19;57.90;95208.78;5051000;28;20212;-62
2022/07/17 05:25:20;;;;;;;2.53;1.88;;;;;;;22.16;57.13;95219.50;5031735;28;20213;-62
2022/07/17 05:27:46;;;;;;;5.18;2.30;;;;;;;22.24;56.27;95231.56;5050160;28;20575;-61
2022/07/17 05:30:12;;;;;;;2.28;2.10;;;;;;;22.23;55.76;95222.97;5050236;28;20185;-62
2022/07/17 05:32:37;;;;;;;3.42;2.58;;;;;;;22.37;57.11;95201.34;5050146;28;20272;-62
2022/07/17 05:35:03;;;;;;;11.52;6.53;;;;;;;22.63;72.83;94967.44;5050018;28;20732;-63
2022/07/17 05:37:29;;;;;;;7.97;4.32;;;;;;;22.82;63.12;95135.25;5050080;28;20270;-62
2022/07/17 05:39:54;;;;;;;5.95;3.92;;;;;;;23.08;61.65;95170.88;5049963;28;20288;-62
2022/07/17 05:42:20;;;;;;;5.55;3.83;;;;;;;23.17;72.33;94982.88;5050374;28;20296;-63
2022/07/17 05:44:45;;;;;;;5.55;3.45;;;;;;;23.23;59.33;95195.69;5049899;28;20186;-62
2022/07/17 05:47:11;;;;;;;5.45;3.00;;;;;;;23.23;57.93;95197.50;5050229;28;20211;-64
2022/07/17 05:49:36;;;;;;;4.80;3.53;;;;;;;23.54;67.21;95078.38;5049818;28;20643;-63
2022/07/17 05:52:02;;;;;;;6.68;3.47;;;;;;;23.89;68.24;95079.81;5049814;28;20240;-62
2022/07/17 05:54:27;;;;;;;4.68;2.88;;;;;;;23.96;63.43;95129.94;5049802;28;20546;-61
2022/07/17 05:56:53;;;;;;;10.27;4.40;;;;;;;24.09;68.52;95057.22;5049559;28;20587;-62
2022/07/17 05:59:18;;;;;;;7.10;3.88;;;;;;;24.36;72.46;95010.38;5049644;28;20578;-62
2022/07/17 06:01:44;;;;;;;5.65;3.53;;;;;;;24.66;65.81;95126.69;5049505;28;20212;-62
2022/07/17 06:04:09;;;;;;;6.03;3.42;;;;;;;24.86;68.06;95078.03;5049534;28;20656;-61
2022/07/17 06:06:35;;;;;;;3.20;2.35;;;;;;;24.82;54.19;95282.34;5049765;28;20213;-61
2022/07/17 06:09:01;;;;;;;3.28;2.20;;;;;;;25.03;59.97;95198.03;5049504;28;20221;-63
2022/07/17 06:11:26;;;;;;;4.85;2.92;;;;;;;25.30;62.36;95159.69;5049506;28;20220;-61
2022/07/17 06:13:52;;;;;;;4.30;2.83;;;;;;;25.36;62.24;95159.66;5049310;28;20546;-62
2022/07/17 06:16:17;;;;;;;5.97;3.00;;;;;;;25.46;61.19;95157.44;5049445;28;20688;-61
2022/07/17 06:18:43;;;;;;;6.43;2.55;;;;;;;25.31;47.58;95335.72;5049313;28;20676;-61
2022/07/17 06:21:08;;;;;;;4.95;2.50;;;;;;;24.90;49.15;95279.53;5031071;28;20216;-62
2022/07/17 06:23:34;;;;;;;5.00;2.00;;;;;;;24.24;47.80;95287.50;5049262;28;20178;-61
2022/07/17 06:25:59;;;;;;;4.97;2.17;;;;;;;23.99;48.45;95287.22;5031229;28;20715;-62
2022/07/17 06:28:25;;;;;;;3.75;2.05;;;;;;;24.02;49.47;95260.84;5049072;28;20221;-62
2022/07/17 06:30:50;;;;;;;3.75;2.30;;;;;;;23.88;49.01;95270.41;5049184;28;20209;-61
2022/07/17 06:33:16;;;;;;;3.28;2.40;;;;;;;23.68;48.42;95273.94;5049198;28;20197;-62
2022/07/17 06:35:41;;;;;;;4.25;2.00;;;;;;;23.42;49.03;95272.06;5031457;28;20580;-61
2022/07/17 06:38:08;;;;;;;6.78;2.17;;;;;;;23.49;48.92;95259.09;5051298;28;20220;-61
2022/07/17 06:40:33;;;;;;;4.43;2.17;;;;;;;23.72;49.60;95251.78;5052847;28;20293;-63
2022/07/17 06:42:59;;;;;;;4.90;2.50;;;;;;;23.72;50.81;95228.41;5052724;28;20262;-62
2022/07/17 06:45:24;;;;;;;9.25;2.53;;;;;;;23.62;50.19;95235.75;5052445;28;20201;-62
2022/07/17 06:47:50;;;;;;;2.33;2.05;;;;;;;23.61;50.63;95229.00;5034473;28;20217;-62
2022/07/17 06:50:16;;;;;;;2.72;2.53;;;;;;;23.54;49.22;95254.91;5052428;28;20174;-62
2022/07/17 06:52:41;;;;;;;3.03;2.30;;;;;;;23.68;50.06;95237.59;5034766;28;20196;-62
2022/07/17 06:55:07;;;;;;;3.92;2.58;;;;;;;23.84;50.05;95245.00;5052263;28;20274;-62
2022/07/17 06:57:33;;;;;;;3.00;2.20;;;;;;;23.71;49.60;95253.59;5052942;28;20185;-64
2022/07/17 06:59:58;;;;;;;6.82;2.40;;;;;;;23.89;48.53;95261.63;5052318;28;20197;-64
2022/07/17 07:02:24;;;;;;;3.80;2.88;;;;;;;24.02;49.79;95242.66;5052117;28;20682;-63
2022/07/17 07:04:49;;;;;;;4.32;2.92;;;;;;;23.88;51.40;95215.06;5052285;28;20194;-64
2022/07/17 07:07:14;;;;;;;3.92;2.75;;;;;;;23.78;50.75;95230.22;5052232;28;20292;-63
2022/07/17 07:09:40;;;;;;;4.22;2.45;;;;;;;23.74;50.10;95237.59;5051946;28;20320;-63
2022/07/17 07:12:07;;;;;;;3.30;2.58;;;;;;;23.71;49.62;95251.00;5052374;28;20691;-63
2022/07/17 07:14:32;;;;;;;8.70;2.40;;;;;;;23.63;50.14;95239.97;5051913;28;20225;-63
2022/07/17 07:16:58;;;;;;;5.03;2.45;;;;;;;23.77;50.97;95237.22;5034106;28;20351;-64
2022/07/17 07:19:23;;;;;;;4.47;2.42;;;;;;;23.93;50.60;95239.47;5034058;28;20193;-64
2022/07/17 07:21:49;;;;;;;5.38;2.67;;;;;;;23.95;52.86;95197.69;5034043;28;20836;-63
2022/07/17 07:24:15;;;;;;;6.13;2.75;;;;;;;23.98;52.63;95207.66;5034167;28;20244;-63
2022/07/17 07:26:40;;;;;;;5.18;2.40;;;;;;;24.06;52.20;95215.31;5033933;28;20225;-63
2022/07/17 07:29:06;;;;;;;3.80;2.70;;;;;;;24.24;52.17;95219.94;5050467;28;20713;-61
2022/07/17 07:31:32;;;;;;;4.85;2.40;;;;;;;24.14;49.76;95248.88;5051684;28;20262;-62
2022/07/17 07:33:58;;;;;;;3.17;2.35;;;;;;;24.28;49.82;95253.09;5051824;28;20182;-62
2022/07/17 07:36:23;;;;;;;3.42;3.13;;;;;;;24.34;51.79;95221.09;5051960;28;20216;-63
2022/07/17 07:38:49;;;;;;;2.70;2.50;;;;;;;24.48;52.87;95196.72;5033592;28;20185;-62
2022/07/17 07:41:15;;;;;;;5.45;2.67;;;;;;;24.65;51.33;95231.72;5051333;28;20661;-64
2022/07/17 07:43:41;;;;;;;7.35;2.40;;;;;;;24.43;48.99;95266.72;5033462;28;20190;-62
2022/07/17 07:46:06;;;;;;;6.43;4.13;;;;;;;24.50;51.18;95231.13;5033842;28;20225;-64
2022/07/17 07:48:32;;;;;;;2.85;2.47;;;;;;;24.52;50.02;95262.94;5051231;28;20213;-62
2022/07/17 07:50:57;;;;;;;5.20;2.92;;;;;;;24.68;49.19;95265.13;5051369;28;20205;-63
2022/07/17 07:53:23;;;;;;;4.22;2.65;;;;;;;24.66;47.60;95287.13;5051333;28;20200;-62
2022/07/17 07:55:48;;;;;;;7.13;2.45;;;;;;;24.59;47.79;95281.91;5051224;28;20194;-62
2022/07/17 07:58:14;;;;;;;6.85;3.08;;;;;;;24.71;49.16;95248.31;5033489;28;20695;-64
2022/07/17 08:00:42;;;;;;;4.68;2.53;;;;;;;24.88;50.62;95236.50;5033123;28;20221;-63
2022/07/17 08:03:09;;;;;;;4.75;2.60;;;;;;;24.85;48.25;95284.53;5051403;28;20182;-62
2022/07/17 08:05:34;;;;;;;3.33;2.30;;;;;;;24.80;47.43;95291.34;5051433;28;20591;-63
2022/07/17 08:08:00;;;;;;;4.45;2.95;;;;;;;24.85;47.91;95275.94;5051411;28;20229;-63
2022/07/17 08:10:26;;;;;;;6.10;2.72;;;;;;;24.92;47.15;95292.34;5051233;28;20200;-63
2022/07/17 08:12:52;;;;;;;4.15;2.75;;;;;;;24.87;47.26;95290.34;5051265;28;20204;-62
2022/07/17 08:15:20;;;;;;;3.58;2.90;;;;;;;24.84;47.66;95282.94;5051164;28;20600;-62
2022/07/17 08:17:47;;;;;;;7.85;3.67;;;;;;;24.87;48.18;95279.13;5051156;28;20194;-62
2022/07/17 08:20:14;;;;;;;6.55;3.15;;;;;;;24.85;47.60;95294.13;5033025;28;20181;-62
2022/07/17 08:22:40;;;;;;;3.92;2.33;;;;;;;24.88;46.90;95304.97;5050898;28;20242;-63
2022/07/17 08:25:06;;;;;;;3.60;2.90;;;;;;;24.90;46.57;95300.34;5050894;28;20256;-63
2022/07/17 08:27:36;;;;;;;2.78;2.40;;;;;;;25.03;47.10;95283.13;5051383;28;20298;-64
2022/07/17 08:30:04;;;;;;;3.55;2.47;;;;;;;25.19;48.63;95262.66;5050970;28;20208;-62
2022/07/17 08:32:29;;;;;;;3.58;2.40;;;;;;;25.34;49.44;95244.19;5051116;28;20274;-62
2022/07/17 08:34:54;;;;;;;4.60;2.90;;;;;;;25.48;48.33;95269.19;5050755;28;20698;-62
2022/07/17 08:37:20;;;;;;;2.58;2.28;;;;;;;25.54;45.10;95329.09;5050891;28;20221;-64
2022/07/17 08:39:46;;;;;;;4.97;2.47;;;;;;;25.68;46.11;95306.38;5050686;28;20213;-62
2022/07/17 08:42:15;;;;;;;5.53;2.90;;;;;;;25.69;46.38;95300.97;5050801;28;20691;-62
2022/07/17 08:44:42;;;;;;;4.80;4.15;;;;;;;25.53;44.03;95348.31;5032576;28;20186;-62
2022/07/17 08:47:10;;;;;;;4.97;3.25;;;;;;;25.50;44.33;95329.69;5050846;28;20648;-62
2022/07/17 08:49:40;;;;;;;3.30;2.72;;;;;;;25.57;44.81;95320.06;5050422;28;20310;-62
2022/07/17 08:52:06;;;;;;;5.20;2.72;;;;;;;25.65;44.74;95314.63;5050855;28;20209;-63
2022/07/17 08:54:32;;;;;;;3.92;2.50;;;;;;;25.78;44.96;95317.16;5050665;28;20704;-65
2022/07/17 08:56:57;;;;;;;3.15;2.20;;;;;;;25.84;43.27;95334.56;5050669;28;20723;-63
2022/07/17 08:59:23;;;;;;;3.08;2.78;;;;;;;25.97;44.45;95313.69;5050104;28;20646;-63
2022/07/17 09:01:48;;;;;;;2.65;2.40;;;;;;;25.97;44.87;95303.25;5050022;28;20687;-62
2022/07/17 09:04:17;;;;;;;2.53;2.33;;;;;;;26.07;44.91;95298.44;5050442;28;20523;-62
2022/07/17 09:06:42;;;;;;;2.40;2.17;;;;;;;25.89;43.43;95319.13;5050164;28;20213;-63
2022/07/17 09:09:11;;;;;;;4.22;2.40;;;;;;;25.91;43.10;95314.53;5050389;28;20300;-63
2022/07/17 09:11:47;;;;;;;3.83;2.33;;;;;;;26.19;43.20;95312.41;5050436;28;20233;-61
2022/07/17 09:14:13;;;;;;;9.27;5.20;;;;;;;26.21;43.25;95312.97;5050221;28;20185;-64
2022/07/17 09:16:56;;;;;;;5.78;3.55;;;;;;;26.31;45.09;95278.63;5050078;28;20236;-62
2022/07/17 09:19:29;;;;;;;2.53;2.33;;;;;;;26.52;43.25;95318.19;5050263;28;20255;-62
2022/07/17 09:22:17;;;;;;;5.18;3.10;;;;;;;26.73;44.06;95296.19;5050149;28;20711;-63
2022/07/17 09:24:47;;;;;;;3.22;2.20;;;;;;;26.94;42.32;95334.16;5050074;28;20280;-63
2022/07/17 09:27:27;;;;;;;4.32;2.58;;;;;;;27.14;42.15;95337.41;5050338;28;20221;-62
2022/07/17 09:30:12;;;;;;;4.90;2.72;;;;;;;26.77;40.81;95354.75;5049893;28;20213;-65
2022/07/17 09:32:39;;;;;;;2.30;2.10;;;;;;;26.82;40.69;95359.34;5050281;28;20189;-62
2022/07/17 09:35:08;;;;;;;3.05;2.15;;;;;;;27.20;41.86;95319.06;5032075;28;20335;-62
2022/07/17 09:37:35;;;;;;;5.10;2.25;;;;;;;27.05;39.96;95360.34;5050259;28;20200;-63
2022/07/17 09:40:02;;;;;;;3.00;2.20;;;;;;;27.44;42.15;95314.81;5049950;28;20189;-62
2022/07/17 09:42:32;;;;;;;2.92;2.00;;;;;;;27.75;42.17;95319.09;5050179;28;20189;-62
2022/07/17 09:45:00;;;;;;;4.32;2.13;;;;;;;27.79;41.05;95335.94;5049922;28;20193;-63
2022/07/17 09:47:27;;;;;;;2.63;2.25;;;;;;;27.79;39.30;95381.19;5049789;28;20280;-63
2022/07/17 09:49:54;;;;;;;5.95;2.80;;;;;;;27.68;39.03;95371.44;5032576;28;20247;-64
2022/07/17 09:52:24;;;;;;;4.45;3.60;;;;;;;27.80;38.33;95388.00;5050553;28;20206;-62
2022/07/17 09:54:52;;;;;;;2.97;2.53;;;;;;;27.88;38.89;95351.09;5050386;28;20560;-63
2022/07/17 09:57:19;;;;;;;2.95;2.10;;;;;;;27.93;38.93;95361.72;5049960;28;20300;-61
2022/07/17 09:59:46;;;;;;;2.17;1.90;;;;;;;27.77;37.84;95377.19;5031902;28;20247;-61
2022/07/17 10:02:12;;;;;;;5.63;2.60;;;;;;;27.84;40.76;95315.16;5049676;28;20221;-61
2022/07/17 10:04:37;;;;;;;4.75;2.55;;;;;;;27.94;38.68;95352.84;5050325;28;20215;-62
2022/07/17 10:07:03;;;;;;;2.78;2.50;;;;;;;28.20;38.56;95359.56;5049874;28;20209;-61
2022/07/17 10:09:30;;;;;;;3.58;2.22;;;;;;;28.51;37.83;95361.16;5049610;28;20236;-61
2022/07/17 10:11:56;;;;;;;6.07;3.50;;;;;;;28.66;37.88;95361.59;5052516;28;20581;-64
2022/07/17 10:14:22;;;;;;;3.47;2.20;;;;;;;28.79;37.05;95385.75;5053788;28;20273;-64
2022/07/17 10:16:48;;;;;;;4.10;2.47;;;;;;;28.90;36.83;95384.19;5053045;28;20252;-64
2022/07/17 10:19:19;;;;;;;3.05;2.47;;;;;;;28.81;36.30;95380.28;5053840;28;20269;-63
2022/07/17 10:22:00;;;;;;;2.35;2.15;;;;;;;28.93;36.06;95379.28;5053170;28;20264;-63
2022/07/17 10:24:28;;;;;;;2.72;2.30;;;;;;;29.34;36.17;95372.41;5053527;28;20287;-63
2022/07/17 10:26:54;;;;;;;3.05;2.47;;;;;;;29.21;37.43;95336.75;5053770;28;20213;-61
2022/07/17 10:29:34;;;;;;;3.25;1.92;;;;;;;29.20;36.79;95348.25;5035722;28;20220;-62
2022/07/17 10:32:08;;;;;;;4.82;1.92;;;;;;;29.07;36.31;95366.00;5053079;28;20227;-61
2022/07/17 10:34:40;;;;;;;1.98;1.88;;;;;;;29.43;35.93;95350.84;5053233;28;20594;-64
2022/07/17 10:37:26;;;;;;;3.47;3.17;;;;;;;29.18;35.98;95355.56;5053962;28;20213;-62
2022/07/17 10:40:10;;;;;;;3.53;1.92;;;;;;;29.25;35.55;95353.59;5052920;28;20564;-62
2022/07/17 10:42:45;;;;;;;2.95;2.35;;;;;;;29.59;38.44;95286.47;5034835;28;20597;-61
2022/07/17 10:45:12;;;;;;;2.17;1.98;;;;;;;29.58;36.01;95343.34;5052319;28;20682;-62
2022/07/17 10:48:01;;;;;;;2.05;1.95;;;;;;;29.83;35.32;95349.16;5052551;28;20200;-62
2022/07/17 10:50:30;;;;;;;4.43;2.33;;;;;;;30.12;37.25;95307.97;5052224;28;20721;-61
2022/07/17 10:53:07;;;;;;;1.85;1.75;;;;;;;30.03;35.04;95361.06;5034400;28;20571;-61
2022/07/17 10:55:35;;;;;;;6.18;2.70;;;;;;;29.55;36.29;95316.78;5052221;28;20212;-61
2022/07/17 10:58:02;;;;;;;2.65;2.40;;;;;;;30.00;36.09;95327.44;5052794;28;20190;-61
2022/07/17 11:00:27;;;;;;;4.35;2.50;;;;;;;29.79;35.43;95331.47;5052120;28;20589;-61
2022/07/17 11:02:53;;;;;;;2.15;1.95;;;;;;;29.73;36.48;95319.28;5052710;28;20201;-62
2022/07/17 11:05:19;;;;;;;3.80;2.25;;;;;;;30.01;35.77;95316.69;5052126;28;20228;-62
2022/07/17 11:07:56;;;;;;;5.57;2.30;;;;;;;30.34;35.28;95329.91;5051632;28;20551;-60
2022/07/17 11:10:25;;;;;;;3.83;2.92;;;;;;;30.62;35.58;95335.13;5052033;28;20232;-59
2022/07/17 11:12:51;;;;;;;3.58;2.03;;;;;;;30.60;35.02;95323.31;5051732;28;20263;-59
2022/07/17 11:15:17;;;;;;;2.38;2.10;;;;;;;31.03;36.88;95284.06;5051650;28;20228;-60
2022/07/17 11:17:47;;;;;;;2.83;2.00;;;;;;;31.19;36.06;95293.75;5033571;28;20189;-60
2022/07/17 11:20:13;;;;;;;3.58;2.40;;;;;;;31.16;35.87;95307.41;5051599;28;20208;-60
2022/07/17 11:22:39;;;;;;;2.50;2.30;;;;;;;31.17;36.22;95281.91;5050812;28;20193;-62
2022/07/17 11:25:06;;;;;;;3.88;2.30;;;;;;;30.84;35.45;95298.50;5051467;28;20209;-62
2022/07/17 11:27:39;;;;;;;3.22;2.20;;;;;;;30.32;35.28;95302.34;5051971;28;20193;-61
2022/07/17 11:30:10;;;;;;;3.08;2.88;;;;;;;29.86;34.56;95302.50;5033621;28;20708;-60
2022/07/17 11:32:38;;;;;;;3.95;2.15;;;;;;;29.50;34.63;95308.81;5033752;28;20209;-61